Hébergeur de fichiers indépendant

Portugal 2016.gpx

À propos

Type de fichier
Fichier GPX de 2.2 Mo (application/xml)
Confidentialité
Fichier public, envoyé le 28 juillet 2016 à 21:54, depuis l'adresse IP 78.227.x.x (France)
Sécurité
Ne contient aucun Virus ou Malware connus - Dernière vérification: 02/06/19
Statistiques
La présente page de téléchargement a été vue 534 fois depuis l'envoi du fichier
Page de téléchargement

Aperçu du fichier


<?xml version="1.0" encoding="UTF-8"?>
<gpx xmlns="http://www.topografix.com/GPX/1/1" xmlns:gpsies="http://www.gpsies.com/GPX/1/0" creator="GPSies http://www.gpsies.com - GPSies Track" version="1.1" xmlns:xsi="http://www.w3.org/2001/XMLSchema-instance" xsi:schemaLocation="http://www.topografix.com/GPX/1/1 http://www.topografix.com/GPX/1/1/gpx.xsd http://www.gpsies.com/GPX/1/0 http://www.gpsies.com/gpsies.xsd">
  <metadata>
    <name>GPSies Track</name>
    <link href="http://www.gpsies.com/">
      <text>GPSies Track on GPSies.com</text>
    </link>
    <time>2016-07-16T00:02:37Z</time>
  </metadata>
  <trk>
    <name>GPSies Track on GPSies.com</name>
    <trkseg>
      <trkpt lat="42.89948809" lon="-8.42350959">
        <ele>359.00000</ele>
        <time>2010-01-01T00:00:00Z</time>
      </trkpt>
      <trkpt lat="42.89946000" lon="-8.42370000">
        <ele>359.00000</ele>
        <time>2010-01-01T00:00:05Z</time>
      </trkpt>
      <trkpt lat="42.90125000" lon="-8.42387000">
        <ele>356.00000</ele>
        <time>2010-01-01T00:01:17Z</time>
      </trkpt>
      <trkpt lat="42.90130000" lon="-8.42391000">
        <ele>356.00000</ele>
        <time>2010-01-01T00:01:19Z</time>
      </trkpt>
      <trkpt lat="42.90141000" lon="-8.42385000">
        <ele>355.00000</ele>
        <time>2010-01-01T00:01:24Z</time>
      </trkpt>
      <trkpt lat="42.90147000" lon="-8.42386000">
        <ele>355.00000</ele>
        <time>2010-01-01T00:01:27Z</time>
      </trkpt>
      <trkpt lat="42.90153000" lon="-8.42389000">
        <ele>355.00000</ele>
        <time>2010-01-01T00:01:29Z</time>
      </trkpt>
      <trkpt lat="42.90161000" lon="-8.42400000">
        <ele>355.00000</ele>
        <time>2010-01-01T00:01:34Z</time>
      </trkpt>
      <trkpt lat="42.90164000" lon="-8.42415000">
        <ele>355.00000</ele>
        <time>2010-01-01T00:01:38Z</time>
      </trkpt>
      <trkpt lat="42.90169000" lon="-8.42426000">
        <ele>355.00000</ele>
        <time>2010-01-01T00:01:42Z</time>
      </trkpt>
      <trkpt lat="42.90181000" lon="-8.42432000">
        <ele>357.00000</ele>
        <time>2010-01-01T00:01:47Z</time>
      </trkpt>
      <trkpt lat="42.90197000" lon="-8.42443000">
        <ele>359.00000</ele>
        <time>2010-01-01T00:01:54Z</time>
      </trkpt>
      <trkpt lat="42.90213000" lon="-8.42461000">
        <ele>359.00000</ele>
        <time>2010-01-01T00:02:03Z</time>
      </trkpt>
      <trkpt lat="42.90735000" lon="-8.43128000">
        <ele>342.00000</ele>
        <time>2010-01-01T00:06:49Z</time>
      </trkpt>
      <trkpt lat="42.90776000" lon="-8.43171000">
        <ele>345.00000</ele>
        <time>2010-01-01T00:07:09Z</time>
      </trkpt>
      <trkpt lat="42.90828000" lon="-8.43208000">
        <ele>341.00000</ele>
        <time>2010-01-01T00:07:33Z</time>
      </trkpt>
      <trkpt lat="42.90851000" lon="-8.43222000">
        <ele>337.00000</ele>
        <time>2010-01-01T00:07:43Z</time>
      </trkpt>
      <trkpt lat="42.90885000" lon="-8.43238000">
        <ele>328.00000</ele>
        <time>2010-01-01T00:07:57Z</time>
      </trkpt>
      <trkpt lat="42.90919000" lon="-8.43247000">
        <ele>321.00000</ele>
        <time>2010-01-01T00:08:11Z</time>
      </trkpt>
      <trkpt lat="42.90938000" lon="-8.43247000">
        <ele>319.00000</ele>
        <time>2010-01-01T00:08:19Z</time>
      </trkpt>
      <trkpt lat="42.90955000" lon="-8.43240000">
        <ele>317.00000</ele>
        <time>2010-01-01T00:08:26Z</time>
      </trkpt>
      <trkpt lat="42.90971000" lon="-8.43226000">
        <ele>316.00000</ele>
        <time>2010-01-01T00:08:34Z</time>
      </trkpt>
      <trkpt lat="42.90986000" lon="-8.43217000">
        <ele>317.00000</ele>
        <time>2010-01-01T00:08:40Z</time>
      </trkpt>
      <trkpt lat="42.91004000" lon="-8.43218000">
        <ele>316.00000</ele>
        <time>2010-01-01T00:08:47Z</time>
      </trkpt>
      <trkpt lat="42.91013000" lon="-8.43223000">
        <ele>315.00000</ele>
        <time>2010-01-01T00:08:51Z</time>
      </trkpt>
      <trkpt lat="42.91020000" lon="-8.43229000">
        <ele>315.00000</ele>
        <time>2010-01-01T00:08:55Z</time>
      </trkpt>
      <trkpt lat="42.91029000" lon="-8.43245000">
        <ele>315.00000</ele>
        <time>2010-01-01T00:09:00Z</time>
      </trkpt>
      <trkpt lat="42.91033000" lon="-8.43261000">
        <ele>315.00000</ele>
        <time>2010-01-01T00:09:05Z</time>
      </trkpt>
      <trkpt lat="42.91034000" lon="-8.43277000">
        <ele>314.00000</ele>
        <time>2010-01-01T00:09:10Z</time>
      </trkpt>
      <trkpt lat="42.91031000" lon="-8.43291000">
        <ele>313.00000</ele>
        <time>2010-01-01T00:09:14Z</time>
      </trkpt>
      <trkpt lat="42.91023000" lon="-8.43308000">
        <ele>313.00000</ele>
        <time>2010-01-01T00:09:20Z</time>
      </trkpt>
      <trkpt lat="42.91018000" lon="-8.43314000">
        <ele>313.00000</ele>
        <time>2010-01-01T00:09:23Z</time>
      </trkpt>
      <trkpt lat="42.91002000" lon="-8.43351000">
        <ele>312.00000</ele>
        <time>2010-01-01T00:09:36Z</time>
      </trkpt>
      <trkpt lat="42.90993000" lon="-8.43378000">
        <ele>312.00000</ele>
        <time>2010-01-01T00:09:44Z</time>
      </trkpt>
      <trkpt lat="42.90967000" lon="-8.43486000">
        <ele>307.00000</ele>
        <time>2010-01-01T00:10:18Z</time>
      </trkpt>
      <trkpt lat="42.90951000" lon="-8.43558000">
        <ele>309.00000</ele>
        <time>2010-01-01T00:10:40Z</time>
      </trkpt>
      <trkpt lat="42.90949000" lon="-8.43612000">
        <ele>308.00000</ele>
        <time>2010-01-01T00:10:56Z</time>
      </trkpt>
      <trkpt lat="42.90952000" lon="-8.43723000">
        <ele>307.00000</ele>
        <time>2010-01-01T00:11:28Z</time>
      </trkpt>
      <trkpt lat="42.91004000" lon="-8.44048000">
        <ele>306.00000</ele>
        <time>2010-01-01T00:13:06Z</time>
      </trkpt>
      <trkpt lat="42.91030000" lon="-8.44191000">
        <ele>305.00000</ele>
        <time>2010-01-01T00:13:49Z</time>
      </trkpt>
      <trkpt lat="42.91041000" lon="-8.44265000">
        <ele>311.00000</ele>
        <time>2010-01-01T00:14:11Z</time>
      </trkpt>
      <trkpt lat="42.91067000" lon="-8.44420000">
        <ele>313.00000</ele>
        <time>2010-01-01T00:14:58Z</time>
      </trkpt>
      <trkpt lat="42.91079000" lon="-8.44530000">
        <ele>312.00000</ele>
        <time>2010-01-01T00:15:30Z</time>
      </trkpt>
      <trkpt lat="42.91081000" lon="-8.44603000">
        <ele>311.00000</ele>
        <time>2010-01-01T00:15:52Z</time>
      </trkpt>
      <trkpt lat="42.91075000" lon="-8.44661000">
        <ele>312.00000</ele>
        <time>2010-01-01T00:16:09Z</time>
      </trkpt>
      <trkpt lat="42.91065000" lon="-8.44719000">
        <ele>311.00000</ele>
        <time>2010-01-01T00:16:26Z</time>
      </trkpt>
      <trkpt lat="42.91037000" lon="-8.44858000">
        <ele>312.00000</ele>
        <time>2010-01-01T00:17:09Z</time>
      </trkpt>
      <trkpt lat="42.91031000" lon="-8.44902000">
        <ele>315.00000</ele>
        <time>2010-01-01T00:17:22Z</time>
      </trkpt>
      <trkpt lat="42.91027000" lon="-8.44942000">
        <ele>317.00000</ele>
        <time>2010-01-01T00:17:33Z</time>
      </trkpt>
      <trkpt lat="42.91026000" lon="-8.44983000">
        <ele>319.00000</ele>
        <time>2010-01-01T00:17:46Z</time>
      </trkpt>
      <trkpt lat="42.91031000" lon="-8.45062000">
        <ele>320.00000</ele>
        <time>2010-01-01T00:18:09Z</time>
      </trkpt>
      <trkpt lat="42.91044000" lon="-8.45135000">
        <ele>321.00000</ele>
        <time>2010-01-01T00:18:31Z</time>
      </trkpt>
      <trkpt lat="42.91064000" lon="-8.45213000">
        <ele>321.00000</ele>
        <time>2010-01-01T00:18:55Z</time>
      </trkpt>
      <trkpt lat="42.91115000" lon="-8.45362000">
        <ele>317.00000</ele>
        <time>2010-01-01T00:19:43Z</time>
      </trkpt>
      <trkpt lat="42.91131000" lon="-8.45423000">
        <ele>314.00000</ele>
        <time>2010-01-01T00:20:02Z</time>
      </trkpt>
      <trkpt lat="42.91145000" lon="-8.45494000">
        <ele>311.00000</ele>
        <time>2010-01-01T00:20:24Z</time>
      </trkpt>
      <trkpt lat="42.91150000" lon="-8.45545000">
        <ele>310.00000</ele>
        <time>2010-01-01T00:20:39Z</time>
      </trkpt>
      <trkpt lat="42.91153000" lon="-8.45610000">
        <ele>308.00000</ele>
        <time>2010-01-01T00:20:58Z</time>
      </trkpt>
      <trkpt lat="42.91151000" lon="-8.45685000">
        <ele>307.00000</ele>
        <time>2010-01-01T00:21:20Z</time>
      </trkpt>
      <trkpt lat="42.91142000" lon="-8.45769000">
        <ele>305.00000</ele>
        <time>2010-01-01T00:21:45Z</time>
      </trkpt>
      <trkpt lat="42.91134000" lon="-8.45809000">
        <ele>303.00000</ele>
        <time>2010-01-01T00:21:57Z</time>
      </trkpt>
      <trkpt lat="42.91123000" lon="-8.45846000">
        <ele>300.00000</ele>
        <time>2010-01-01T00:22:09Z</time>
      </trkpt>
      <trkpt lat="42.91097000" lon="-8.45920000">
        <ele>295.00000</ele>
        <time>2010-01-01T00:22:33Z</time>
      </trkpt>
      <trkpt lat="42.91069000" lon="-8.45985000">
        <ele>292.00000</ele>
        <time>2010-01-01T00:22:55Z</time>
      </trkpt>
      <trkpt lat="42.91030000" lon="-8.46052000">
        <ele>286.00000</ele>
        <time>2010-01-01T00:23:20Z</time>
      </trkpt>
      <trkpt lat="42.90988000" lon="-8.46110000">
        <ele>281.00000</ele>
        <time>2010-01-01T00:23:44Z</time>
      </trkpt>
      <trkpt lat="42.90967000" lon="-8.46134000">
        <ele>279.00000</ele>
        <time>2010-01-01T00:23:55Z</time>
      </trkpt>
      <trkpt lat="42.90941000" lon="-8.46158000">
        <ele>277.00000</ele>
        <time>2010-01-01T00:24:07Z</time>
      </trkpt>
      <trkpt lat="42.90888000" lon="-8.46199000">
        <ele>277.00000</ele>
        <time>2010-01-01T00:24:32Z</time>
      </trkpt>
      <trkpt lat="42.90833000" lon="-8.46229000">
        <ele>276.00000</ele>
        <time>2010-01-01T00:24:56Z</time>
      </trkpt>
      <trkpt lat="42.90662000" lon="-8.46295000">
        <ele>275.00000</ele>
        <time>2010-01-01T00:26:07Z</time>
      </trkpt>
      <trkpt lat="42.90614000" lon="-8.46310000">
        <ele>280.00000</ele>
        <time>2010-01-01T00:26:26Z</time>
      </trkpt>
      <trkpt lat="42.90557000" lon="-8.46333000">
        <ele>284.00000</ele>
        <time>2010-01-01T00:26:50Z</time>
      </trkpt>
      <trkpt lat="42.90506000" lon="-8.46367000">
        <ele>289.00000</ele>
        <time>2010-01-01T00:27:13Z</time>
      </trkpt>
      <trkpt lat="42.90461000" lon="-8.46406000">
        <ele>292.00000</ele>
        <time>2010-01-01T00:27:34Z</time>
      </trkpt>
      <trkpt lat="42.90421000" lon="-8.46452000">
        <ele>292.00000</ele>
        <time>2010-01-01T00:27:55Z</time>
      </trkpt>
      <trkpt lat="42.90344000" lon="-8.46568000">
        <ele>302.00000</ele>
        <time>2010-01-01T00:28:41Z</time>
      </trkpt>
      <trkpt lat="42.90307000" lon="-8.46615000">
        <ele>303.00000</ele>
        <time>2010-01-01T00:29:01Z</time>
      </trkpt>
      <trkpt lat="42.90262000" lon="-8.46663000">
        <ele>304.00000</ele>
        <time>2010-01-01T00:29:24Z</time>
      </trkpt>
      <trkpt lat="42.90233000" lon="-8.46688000">
        <ele>306.00000</ele>
        <time>2010-01-01T00:29:38Z</time>
      </trkpt>
      <trkpt lat="42.90183000" lon="-8.46721000">
        <ele>309.00000</ele>
        <time>2010-01-01T00:30:00Z</time>
      </trkpt>
      <trkpt lat="42.90014000" lon="-8.46821000">
        <ele>309.00000</ele>
        <time>2010-01-01T00:31:14Z</time>
      </trkpt>
      <trkpt lat="42.89968000" lon="-8.46856000">
        <ele>310.00000</ele>
        <time>2010-01-01T00:31:35Z</time>
      </trkpt>
      <trkpt lat="42.89915000" lon="-8.46911000">
        <ele>311.00000</ele>
        <time>2010-01-01T00:32:02Z</time>
      </trkpt>
      <trkpt lat="42.89874000" lon="-8.46958000">
        <ele>312.00000</ele>
        <time>2010-01-01T00:32:23Z</time>
      </trkpt>
      <trkpt lat="42.89839000" lon="-8.47011000">
        <ele>312.00000</ele>
        <time>2010-01-01T00:32:44Z</time>
      </trkpt>
      <trkpt lat="42.89803000" lon="-8.47075000">
        <ele>317.00000</ele>
        <time>2010-01-01T00:33:08Z</time>
      </trkpt>
      <trkpt lat="42.89758000" lon="-8.47160000">
        <ele>324.00000</ele>
        <time>2010-01-01T00:33:38Z</time>
      </trkpt>
      <trkpt lat="42.89719000" lon="-8.47249000">
        <ele>328.00000</ele>
        <time>2010-01-01T00:34:09Z</time>
      </trkpt>
      <trkpt lat="42.89694000" lon="-8.47315000">
        <ele>333.00000</ele>
        <time>2010-01-01T00:34:31Z</time>
      </trkpt>
      <trkpt lat="42.89678000" lon="-8.47371000">
        <ele>333.00000</ele>
        <time>2010-01-01T00:34:48Z</time>
      </trkpt>
      <trkpt lat="42.89657000" lon="-8.47451000">
        <ele>336.00000</ele>
        <time>2010-01-01T00:35:13Z</time>
      </trkpt>
      <trkpt lat="42.89636000" lon="-8.47556000">
        <ele>345.00000</ele>
        <time>2010-01-01T00:35:45Z</time>
      </trkpt>
      <trkpt lat="42.89618000" lon="-8.47719000">
        <ele>358.00000</ele>
        <time>2010-01-01T00:36:33Z</time>
      </trkpt>
      <trkpt lat="42.89612000" lon="-8.47827000">
        <ele>360.00000</ele>
        <time>2010-01-01T00:37:05Z</time>
      </trkpt>
      <trkpt lat="42.89615000" lon="-8.47903000">
        <ele>363.00000</ele>
        <time>2010-01-01T00:37:27Z</time>
      </trkpt>
      <trkpt lat="42.89624000" lon="-8.47987000">
        <ele>361.00000</ele>
        <time>2010-01-01T00:37:52Z</time>
      </trkpt>
      <trkpt lat="42.89639000" lon="-8.48097000">
        <ele>355.00000</ele>
        <time>2010-01-01T00:38:25Z</time>
      </trkpt>
      <trkpt lat="42.89655000" lon="-8.48170000">
        <ele>351.00000</ele>
        <time>2010-01-01T00:38:47Z</time>
      </trkpt>
      <trkpt lat="42.89674000" lon="-8.48245000">
        <ele>353.00000</ele>
        <time>2010-01-01T00:39:11Z</time>
      </trkpt>
      <trkpt lat="42.89696000" lon="-8.48314000">
        <ele>352.00000</ele>
        <time>2010-01-01T00:39:33Z</time>
      </trkpt>
      <trkpt lat="42.89721000" lon="-8.48386000">
        <ele>347.00000</ele>
        <time>2010-01-01T00:39:56Z</time>
      </trkpt>
      <trkpt lat="42.89767000" lon="-8.48495000">
        <ele>342.00000</ele>
        <time>2010-01-01T00:40:33Z</time>
      </trkpt>
      <trkpt lat="42.89874000" lon="-8.48725000">
        <ele>343.00000</ele>
        <time>2010-01-01T00:41:53Z</time>
      </trkpt>
      <trkpt lat="42.90011000" lon="-8.49040000">
        <ele>333.00000</ele>
        <time>2010-01-01T00:43:40Z</time>
      </trkpt>
      <trkpt lat="42.90058000" lon="-8.49172000">
        <ele>329.00000</ele>
        <time>2010-01-01T00:44:23Z</time>
      </trkpt>
      <trkpt lat="42.90084000" lon="-8.49278000">
        <ele>325.00000</ele>
        <time>2010-01-01T00:44:56Z</time>
      </trkpt>
      <trkpt lat="42.90091000" lon="-8.49311000">
        <ele>323.00000</ele>
        <time>2010-01-01T00:45:06Z</time>
      </trkpt>
      <trkpt lat="42.90111000" lon="-8.49454000">
        <ele>319.00000</ele>
        <time>2010-01-01T00:45:49Z</time>
      </trkpt>
      <trkpt lat="42.90116000" lon="-8.49526000">
        <ele>321.00000</ele>
        <time>2010-01-01T00:46:10Z</time>
      </trkpt>
      <trkpt lat="42.90119000" lon="-8.49619000">
        <ele>323.00000</ele>
        <time>2010-01-01T00:46:37Z</time>
      </trkpt>
      <trkpt lat="42.90118000" lon="-8.49694000">
        <ele>319.00000</ele>
        <time>2010-01-01T00:46:59Z</time>
      </trkpt>
      <trkpt lat="42.90114000" lon="-8.49772000">
        <ele>313.00000</ele>
        <time>2010-01-01T00:47:22Z</time>
      </trkpt>
      <trkpt lat="42.90103000" lon="-8.49867000">
        <ele>313.00000</ele>
        <time>2010-01-01T00:47:51Z</time>
      </trkpt>
      <trkpt lat="42.90068000" lon="-8.50049000">
        <ele>300.00000</ele>
        <time>2010-01-01T00:48:46Z</time>
      </trkpt>
      <trkpt lat="42.89985000" lon="-8.50463000">
        <ele>292.00000</ele>
        <time>2010-01-01T00:50:52Z</time>
      </trkpt>
      <trkpt lat="42.89935000" lon="-8.50741000">
        <ele>292.00000</ele>
        <time>2010-01-01T00:52:16Z</time>
      </trkpt>
      <trkpt lat="42.89900000" lon="-8.50909000">
        <ele>295.00000</ele>
        <time>2010-01-01T00:53:07Z</time>
      </trkpt>
      <trkpt lat="42.89899000" lon="-8.50927000">
        <ele>295.00000</ele>
        <time>2010-01-01T00:53:12Z</time>
      </trkpt>
      <trkpt lat="42.89900000" lon="-8.50941000">
        <ele>296.00000</ele>
        <time>2010-01-01T00:53:16Z</time>
      </trkpt>
      <trkpt lat="42.89915000" lon="-8.50967000">
        <ele>295.00000</ele>
        <time>2010-01-01T00:53:26Z</time>
      </trkpt>
      <trkpt lat="42.89917000" lon="-8.50982000">
        <ele>296.00000</ele>
        <time>2010-01-01T00:53:30Z</time>
      </trkpt>
      <trkpt lat="42.89917000" lon="-8.50998000">
        <ele>296.00000</ele>
        <time>2010-01-01T00:53:35Z</time>
      </trkpt>
      <trkpt lat="42.89913000" lon="-8.51015000">
        <ele>296.00000</ele>
        <time>2010-01-01T00:53:40Z</time>
      </trkpt>
      <trkpt lat="42.89906000" lon="-8.51028000">
        <ele>297.00000</ele>
        <time>2010-01-01T00:53:45Z</time>
      </trkpt>
      <trkpt lat="42.89898000" lon="-8.51037000">
        <ele>297.00000</ele>
        <time>2010-01-01T00:53:49Z</time>
      </trkpt>
      <trkpt lat="42.89889000" lon="-8.51043000">
        <ele>297.00000</ele>
        <time>2010-01-01T00:53:53Z</time>
      </trkpt>
      <trkpt lat="42.89879000" lon="-8.51046000">
        <ele>297.00000</ele>
        <time>2010-01-01T00:53:57Z</time>
      </trkpt>
      <trkpt lat="42.89869000" lon="-8.51059000">
        <ele>297.00000</ele>
        <time>2010-01-01T00:54:03Z</time>
      </trkpt>
      <trkpt lat="42.89859000" lon="-8.51078000">
        <ele>297.00000</ele>
        <time>2010-01-01T00:54:10Z</time>
      </trkpt>
      <trkpt lat="42.89712000" lon="-8.51834000">
        <ele>314.00000</ele>
        <time>2010-01-01T00:57:59Z</time>
      </trkpt>
      <trkpt lat="42.89695000" lon="-8.51942000">
        <ele>319.00000</ele>
        <time>2010-01-01T00:58:31Z</time>
      </trkpt>
      <trkpt lat="42.89690000" lon="-8.52005000">
        <ele>324.00000</ele>
        <time>2010-01-01T00:58:50Z</time>
      </trkpt>
      <trkpt lat="42.89690000" lon="-8.52064000">
        <ele>324.00000</ele>
        <time>2010-01-01T00:59:07Z</time>
      </trkpt>
      <trkpt lat="42.89692000" lon="-8.52114000">
        <ele>325.00000</ele>
        <time>2010-01-01T00:59:22Z</time>
      </trkpt>
      <trkpt lat="42.89701000" lon="-8.52206000">
        <ele>320.00000</ele>
        <time>2010-01-01T00:59:49Z</time>
      </trkpt>
      <trkpt lat="42.89708000" lon="-8.52240000">
        <ele>317.00000</ele>
        <time>2010-01-01T01:00:00Z</time>
      </trkpt>
      <trkpt lat="42.89720000" lon="-8.52260000">
        <ele>315.00000</ele>
        <time>2010-01-01T01:00:07Z</time>
      </trkpt>
      <trkpt lat="42.89727000" lon="-8.52265000">
        <ele>314.00000</ele>
        <time>2010-01-01T01:00:10Z</time>
      </trkpt>
      <trkpt lat="42.89731000" lon="-8.52274000">
        <ele>313.00000</ele>
        <time>2010-01-01T01:00:13Z</time>
      </trkpt>
      <trkpt lat="42.89732000" lon="-8.52282000">
        <ele>313.00000</ele>
        <time>2010-01-01T01:00:16Z</time>
      </trkpt>
      <trkpt lat="42.89729000" lon="-8.52310000">
        <ele>311.00000</ele>
        <time>2010-01-01T01:00:24Z</time>
      </trkpt>
      <trkpt lat="42.89729000" lon="-8.52329000">
        <ele>310.00000</ele>
        <time>2010-01-01T01:00:30Z</time>
      </trkpt>
      <trkpt lat="42.89747000" lon="-8.52379000">
        <ele>312.00000</ele>
        <time>2010-01-01T01:00:46Z</time>
      </trkpt>
      <trkpt lat="42.89769000" lon="-8.52432000">
        <ele>313.00000</ele>
        <time>2010-01-01T01:01:04Z</time>
      </trkpt>
      <trkpt lat="42.89788000" lon="-8.52473000">
        <ele>313.00000</ele>
        <time>2010-01-01T01:01:18Z</time>
      </trkpt>
      <trkpt lat="42.89805000" lon="-8.52506000">
        <ele>316.00000</ele>
        <time>2010-01-01T01:01:30Z</time>
      </trkpt>
      <trkpt lat="42.89860000" lon="-8.52587000">
        <ele>323.00000</ele>
        <time>2010-01-01T01:02:02Z</time>
      </trkpt>
      <trkpt lat="42.89878000" lon="-8.52601000">
        <ele>324.00000</ele>
        <time>2010-01-01T01:02:11Z</time>
      </trkpt>
      <trkpt lat="42.89897000" lon="-8.52610000">
        <ele>325.00000</ele>
        <time>2010-01-01T01:02:19Z</time>
      </trkpt>
      <trkpt lat="42.89913000" lon="-8.52609000">
        <ele>326.00000</ele>
        <time>2010-01-01T01:02:25Z</time>
      </trkpt>
      <trkpt lat="42.89923000" lon="-8.52615000">
        <ele>327.00000</ele>
        <time>2010-01-01T01:02:29Z</time>
      </trkpt>
      <trkpt lat="42.89934000" lon="-8.52631000">
        <ele>327.00000</ele>
        <time>2010-01-01T01:02:36Z</time>
      </trkpt>
      <trkpt lat="42.89938000" lon="-8.52648000">
        <ele>327.00000</ele>
        <time>2010-01-01T01:02:41Z</time>
      </trkpt>
      <trkpt lat="42.89937000" lon="-8.52663000">
        <ele>327.00000</ele>
        <time>2010-01-01T01:02:46Z</time>
      </trkpt>
      <trkpt lat="42.89935000" lon="-8.52671000">
        <ele>327.00000</ele>
        <time>2010-01-01T01:02:48Z</time>
      </trkpt>
      <trkpt lat="42.89931000" lon="-8.52680000">
        <ele>328.00000</ele>
        <time>2010-01-01T01:02:51Z</time>
      </trkpt>
      <trkpt lat="42.89924000" lon="-8.52689000">
        <ele>328.00000</ele>
        <time>2010-01-01T01:02:55Z</time>
      </trkpt>
      <trkpt lat="42.89900000" lon="-8.52700000">
        <ele>327.00000</ele>
        <time>2010-01-01T01:03:05Z</time>
      </trkpt>
      <trkpt lat="42.89886000" lon="-8.52712000">
        <ele>328.00000</ele>
        <time>2010-01-01T01:03:12Z</time>
      </trkpt>
      <trkpt lat="42.89874000" lon="-8.52726000">
        <ele>330.00000</ele>
        <time>2010-01-01T01:03:18Z</time>
      </trkpt>
      <trkpt lat="42.89826000" lon="-8.52820000">
        <ele>332.00000</ele>
        <time>2010-01-01T01:03:52Z</time>
      </trkpt>
      <trkpt lat="42.89810000" lon="-8.52846000">
        <ele>333.00000</ele>
        <time>2010-01-01T01:04:02Z</time>
      </trkpt>
      <trkpt lat="42.89792000" lon="-8.52871000">
        <ele>334.00000</ele>
        <time>2010-01-01T01:04:12Z</time>
      </trkpt>
      <trkpt lat="42.89769000" lon="-8.52899000">
        <ele>333.00000</ele>
        <time>2010-01-01T01:04:24Z</time>
      </trkpt>
      <trkpt lat="42.89694000" lon="-8.52981000">
        <ele>325.00000</ele>
        <time>2010-01-01T01:05:03Z</time>
      </trkpt>
      <trkpt lat="42.89645000" lon="-8.53027000">
        <ele>324.00000</ele>
        <time>2010-01-01T01:05:27Z</time>
      </trkpt>
      <trkpt lat="42.89466000" lon="-8.53163000">
        <ele>314.00000</ele>
        <time>2010-01-01T01:06:49Z</time>
      </trkpt>
      <trkpt lat="42.89123000" lon="-8.53395000">
        <ele>301.00000</ele>
        <time>2010-01-01T01:09:22Z</time>
      </trkpt>
      <trkpt lat="42.89100000" lon="-8.53415000">
        <ele>301.00000</ele>
        <time>2010-01-01T01:09:33Z</time>
      </trkpt>
      <trkpt lat="42.89000000" lon="-8.53516000">
        <ele>300.00000</ele>
        <time>2010-01-01T01:10:22Z</time>
      </trkpt>
      <trkpt lat="42.88917000" lon="-8.53603000">
        <ele>298.00000</ele>
        <time>2010-01-01T01:11:04Z</time>
      </trkpt>
      <trkpt lat="42.88899000" lon="-8.53625000">
        <ele>297.00000</ele>
        <time>2010-01-01T01:11:14Z</time>
      </trkpt>
      <trkpt lat="42.88881000" lon="-8.53654000">
        <ele>296.00000</ele>
        <time>2010-01-01T01:11:25Z</time>
      </trkpt>
      <trkpt lat="42.88845000" lon="-8.53718000">
        <ele>296.00000</ele>
        <time>2010-01-01T01:11:49Z</time>
      </trkpt>
      <trkpt lat="42.88838000" lon="-8.53743000">
        <ele>297.00000</ele>
        <time>2010-01-01T01:11:57Z</time>
      </trkpt>
      <trkpt lat="42.88836000" lon="-8.53779000">
        <ele>295.00000</ele>
        <time>2010-01-01T01:12:07Z</time>
      </trkpt>
      <trkpt lat="42.88839000" lon="-8.53795000">
        <ele>294.00000</ele>
        <time>2010-01-01T01:12:12Z</time>
      </trkpt>
      <trkpt lat="42.88884000" lon="-8.53936000">
        <ele>283.00000</ele>
        <time>2010-01-01T01:12:57Z</time>
      </trkpt>
      <trkpt lat="42.88898000" lon="-8.53984000">
        <ele>278.00000</ele>
        <time>2010-01-01T01:13:12Z</time>
      </trkpt>
      <trkpt lat="42.88901000" lon="-8.54009000">
        <ele>275.00000</ele>
        <time>2010-01-01T01:13:20Z</time>
      </trkpt>
      <trkpt lat="42.88894000" lon="-8.54033000">
        <ele>273.00000</ele>
        <time>2010-01-01T01:13:27Z</time>
      </trkpt>
      <trkpt lat="42.88886000" lon="-8.54047000">
        <ele>273.00000</ele>
        <time>2010-01-01T01:13:33Z</time>
      </trkpt>
      <trkpt lat="42.88721000" lon="-8.54220000">
        <ele>269.00000</ele>
        <time>2010-01-01T01:14:56Z</time>
      </trkpt>
      <trkpt lat="42.88701000" lon="-8.54235000">
        <ele>267.00000</ele>
        <time>2010-01-01T01:15:05Z</time>
      </trkpt>
      <trkpt lat="42.88692000" lon="-8.54237000">
        <ele>266.00000</ele>
        <time>2010-01-01T01:15:09Z</time>
      </trkpt>
      <trkpt lat="42.88688000" lon="-8.54246000">
        <ele>265.00000</ele>
        <time>2010-01-01T01:15:12Z</time>
      </trkpt>
      <trkpt lat="42.88668000" lon="-8.54259000">
        <ele>263.00000</ele>
        <time>2010-01-01T01:15:21Z</time>
      </trkpt>
      <trkpt lat="42.88663000" lon="-8.54267000">
        <ele>262.00000</ele>
        <time>2010-01-01T01:15:24Z</time>
      </trkpt>
      <trkpt lat="42.88630000" lon="-8.54281000">
        <ele>261.00000</ele>
        <time>2010-01-01T01:15:38Z</time>
      </trkpt>
      <trkpt lat="42.88353000" lon="-8.54458000">
        <ele>259.00000</ele>
        <time>2010-01-01T01:17:40Z</time>
      </trkpt>
      <trkpt lat="42.88312000" lon="-8.54490000">
        <ele>262.00000</ele>
        <time>2010-01-01T01:17:59Z</time>
      </trkpt>
      <trkpt lat="42.88303000" lon="-8.54505000">
        <ele>261.00000</ele>
        <time>2010-01-01T01:18:05Z</time>
      </trkpt>
      <trkpt lat="42.88298000" lon="-8.54522000">
        <ele>261.00000</ele>
        <time>2010-01-01T01:18:10Z</time>
      </trkpt>
      <trkpt lat="42.88295000" lon="-8.54559000">
        <ele>259.00000</ele>
        <time>2010-01-01T01:18:21Z</time>
      </trkpt>
      <trkpt lat="42.88291000" lon="-8.54574000">
        <ele>257.00000</ele>
        <time>2010-01-01T01:18:26Z</time>
      </trkpt>
      <trkpt lat="42.88248000" lon="-8.54647000">
        <ele>247.00000</ele>
        <time>2010-01-01T01:18:53Z</time>
      </trkpt>
      <trkpt lat="42.88246000" lon="-8.54665000">
        <ele>244.00000</ele>
        <time>2010-01-01T01:18:58Z</time>
      </trkpt>
      <trkpt lat="42.88229000" lon="-8.54670000">
        <ele>246.00000</ele>
        <time>2010-01-01T01:19:05Z</time>
      </trkpt>
      <trkpt lat="42.88246000" lon="-8.54665000">
        <ele>244.00000</ele>
        <time>2010-01-01T01:19:12Z</time>
      </trkpt>
      <trkpt lat="42.88331000" lon="-8.54659000">
        <ele>237.00000</ele>
        <time>2010-01-01T01:19:46Z</time>
      </trkpt>
      <trkpt lat="42.88351000" lon="-8.54662000">
        <ele>235.00000</ele>
        <time>2010-01-01T01:19:54Z</time>
      </trkpt>
      <trkpt lat="42.88377000" lon="-8.54677000">
        <ele>232.00000</ele>
        <time>2010-01-01T01:20:06Z</time>
      </trkpt>
      <trkpt lat="42.88402000" lon="-8.54702000">
        <ele>231.00000</ele>
        <time>2010-01-01T01:20:18Z</time>
      </trkpt>
      <trkpt lat="42.88422000" lon="-8.54736000">
        <ele>230.00000</ele>
        <time>2010-01-01T01:20:31Z</time>
      </trkpt>
      <trkpt lat="42.88434000" lon="-8.54773000">
        <ele>229.00000</ele>
        <time>2010-01-01T01:20:43Z</time>
      </trkpt>
      <trkpt lat="42.88445000" lon="-8.54818000">
        <ele>227.00000</ele>
        <time>2010-01-01T01:20:57Z</time>
      </trkpt>
      <trkpt lat="42.88440000" lon="-8.54821000">
        <ele>227.00000</ele>
        <time>2010-01-01T01:20:59Z</time>
      </trkpt>
      <trkpt lat="42.88362000" lon="-8.54839000">
        <ele>230.00000</ele>
        <time>2010-01-01T01:21:31Z</time>
      </trkpt>
      <trkpt lat="42.88328000" lon="-8.54849000">
        <ele>230.00000</ele>
        <time>2010-01-01T01:21:44Z</time>
      </trkpt>
      <trkpt lat="42.88189000" lon="-8.54905000">
        <ele>229.00000</ele>
        <time>2010-01-01T01:22:42Z</time>
      </trkpt>
      <trkpt lat="42.88179000" lon="-8.54903000">
        <ele>229.00000</ele>
        <time>2010-01-01T01:22:47Z</time>
      </trkpt>
      <trkpt lat="42.88122000" lon="-8.54928000">
        <ele>232.00000</ele>
        <time>2010-01-01T01:23:10Z</time>
      </trkpt>
      <trkpt lat="42.88051000" lon="-8.54955000">
        <ele>236.00000</ele>
        <time>2010-01-01T01:23:40Z</time>
      </trkpt>
      <trkpt lat="42.88018000" lon="-8.54957000">
        <ele>237.00000</ele>
        <time>2010-01-01T01:23:53Z</time>
      </trkpt>
      <trkpt lat="42.88003000" lon="-8.54953000">
        <ele>238.00000</ele>
        <time>2010-01-01T01:23:59Z</time>
      </trkpt>
      <trkpt lat="42.87976000" lon="-8.54936000">
        <ele>243.00000</ele>
        <time>2010-01-01T01:24:11Z</time>
      </trkpt>
      <trkpt lat="42.87948000" lon="-8.54913000">
        <ele>248.00000</ele>
        <time>2010-01-01T01:24:24Z</time>
      </trkpt>
      <trkpt lat="42.87817000" lon="-8.54799000">
        <ele>252.00000</ele>
        <time>2010-01-01T01:25:27Z</time>
      </trkpt>
      <trkpt lat="42.87779000" lon="-8.54755000">
        <ele>252.00000</ele>
        <time>2010-01-01T01:25:46Z</time>
      </trkpt>
      <trkpt lat="42.87753000" lon="-8.54720000">
        <ele>253.00000</ele>
        <time>2010-01-01T01:26:01Z</time>
      </trkpt>
      <trkpt lat="42.87750000" lon="-8.54710000">
        <ele>254.00000</ele>
        <time>2010-01-01T01:26:04Z</time>
      </trkpt>
      <trkpt lat="42.87749000" lon="-8.54699000">
        <ele>254.00000</ele>
        <time>2010-01-01T01:26:08Z</time>
      </trkpt>
      <trkpt lat="42.87755000" lon="-8.54653000">
        <ele>255.00000</ele>
        <time>2010-01-01T01:26:21Z</time>
      </trkpt>
      <trkpt lat="42.87753000" lon="-8.54635000">
        <ele>256.00000</ele>
        <time>2010-01-01T01:26:27Z</time>
      </trkpt>
      <trkpt lat="42.87749000" lon="-8.54629000">
        <ele>256.00000</ele>
        <time>2010-01-01T01:26:29Z</time>
      </trkpt>
      <trkpt lat="42.87739000" lon="-8.54622000">
        <ele>256.00000</ele>
        <time>2010-01-01T01:26:33Z</time>
      </trkpt>
      <trkpt lat="42.87730000" lon="-8.54620000">
        <ele>256.00000</ele>
        <time>2010-01-01T01:26:37Z</time>
      </trkpt>
      <trkpt lat="42.87725000" lon="-8.54621000">
        <ele>255.00000</ele>
        <time>2010-01-01T01:26:39Z</time>
      </trkpt>
      <trkpt lat="42.87713000" lon="-8.54629000">
        <ele>255.00000</ele>
        <time>2010-01-01T01:26:44Z</time>
      </trkpt>
      <trkpt lat="42.87704000" lon="-8.54633000">
        <ele>254.00000</ele>
        <time>2010-01-01T01:26:48Z</time>
      </trkpt>
      <trkpt lat="42.87699000" lon="-8.54632000">
        <ele>254.00000</ele>
        <time>2010-01-01T01:26:50Z</time>
      </trkpt>
      <trkpt lat="42.87689000" lon="-8.54621000">
        <ele>255.00000</ele>
        <time>2010-01-01T01:26:55Z</time>
      </trkpt>
      <trkpt lat="42.87685000" lon="-8.54605000">
        <ele>256.00000</ele>
        <time>2010-01-01T01:27:00Z</time>
      </trkpt>
      <trkpt lat="42.87681000" lon="-8.54468000">
        <ele>260.00000</ele>
        <time>2010-01-01T01:27:41Z</time>
      </trkpt>
      <trkpt lat="42.87679000" lon="-8.54456000">
        <ele>259.00000</ele>
        <time>2010-01-01T01:27:44Z</time>
      </trkpt>
      <trkpt lat="42.87614000" lon="-8.54454000">
        <ele>264.00000</ele>
        <time>2010-01-01T01:28:10Z</time>
      </trkpt>
      <trkpt lat="42.87605000" lon="-8.54471000">
        <ele>265.00000</ele>
        <time>2010-01-01T01:28:16Z</time>
      </trkpt>
      <trkpt lat="42.87352000" lon="-8.54586000">
        <ele>256.00000</ele>
        <time>2010-01-01T01:30:03Z</time>
      </trkpt>
      <trkpt lat="42.87350000" lon="-8.54580000">
        <ele>256.00000</ele>
        <time>2010-01-01T01:30:05Z</time>
      </trkpt>
      <trkpt lat="42.87350000" lon="-8.54573000">
        <ele>255.00000</ele>
        <time>2010-01-01T01:30:07Z</time>
      </trkpt>
      <trkpt lat="42.87370000" lon="-8.54508000">
        <ele>255.00000</ele>
        <time>2010-01-01T01:30:28Z</time>
      </trkpt>
      <trkpt lat="42.87373000" lon="-8.54485000">
        <ele>253.00000</ele>
        <time>2010-01-01T01:30:35Z</time>
      </trkpt>
      <trkpt lat="42.87372000" lon="-8.54478000">
        <ele>253.00000</ele>
        <time>2010-01-01T01:30:37Z</time>
      </trkpt>
      <trkpt lat="42.87230000" lon="-8.54475000">
        <ele>240.00000</ele>
        <time>2010-01-01T01:31:34Z</time>
      </trkpt>
      <trkpt lat="42.87206000" lon="-8.54477000">
        <ele>239.00000</ele>
        <time>2010-01-01T01:31:43Z</time>
      </trkpt>
      <trkpt lat="42.87194000" lon="-8.54481000">
        <ele>238.00000</ele>
        <time>2010-01-01T01:31:48Z</time>
      </trkpt>



Partager le fichier

Télécharger Portugal 2016.gpx

Télécharger le fichier (2.2 Mo)